sensor_id;sensor_type;location;lat;lon;timestamp;P1;durP1;ratioP1;P2;durP2;ratioP2
5245;SDS011;54412;51.206;6.888;2022-09-16T00:01:30;6.37;;;1.50;;
5245;SDS011;54412;51.206;6.888;2022-09-16T00:03:56;7.20;;;1.63;;
5245;SDS011;54412;51.206;6.888;2022-09-16T00:06:22;3.80;;;1.20;;
5245;SDS011;54412;51.206;6.888;2022-09-16T00:08:53;4.20;;;0.90;;
5245;SDS011;54412;51.206;6.888;2022-09-16T00:11:21;1.80;;;1.30;;
5245;SDS011;54412;51.206;6.888;2022-09-16T00:13:47;2.10;;;1.07;;
5245;SDS011;54412;51.206;6.888;2022-09-16T00:16:19;4.20;;;1.00;;
5245;SDS011;54412;51.206;6.888;2022-09-16T00:18:52;4.53;;;1.20;;
5245;SDS011;54412;51.206;6.888;2022-09-16T00:21:23;3.30;;;1.60;;
5245;SDS011;54412;51.206;6.888;2022-09-16T00:23:49;2.73;;;1.33;;
5245;SDS011;54412;51.206;6.888;2022-09-16T00:26:15;1.80;;;0.97;;
5245;SDS011;54412;51.206;6.888;2022-09-16T00:28:41;3.60;;;0.90;;
5245;SDS011;54412;51.206;6.888;2022-09-16T00:31:07;6.87;;;1.07;;
5245;SDS011;54412;51.206;6.888;2022-09-16T00:33:33;6.10;;;1.13;;
5245;SDS011;54412;51.206;6.888;2022-09-16T00:36:15;3.40;;;1.10;;
5245;SDS011;54412;51.206;6.888;2022-09-16T00:38:43;4.03;;;0.90;;
5245;SDS011;54412;51.206;6.888;2022-09-16T00:41:16;4.57;;;1.00;;
5245;SDS011;54412;51.206;6.888;2022-09-16T00:46:24;6.60;;;1.47;;
5245;SDS011;54412;51.206;6.888;2022-09-16T00:51:41;8.00;;;1.30;;
5245;SDS011;54412;51.206;6.888;2022-09-16T00:54:11;5.83;;;1.27;;
5245;SDS011;54412;51.206;6.888;2022-09-16T00:56:40;1.47;;;1.10;;
5245;SDS011;54412;51.206;6.888;2022-09-16T00:59:13;8.10;;;1.30;;
5245;SDS011;54412;51.206;6.888;2022-09-16T01:01:48;4.57;;;1.27;;
5245;SDS011;54412;51.206;6.888;2022-09-16T01:04:16;3.13;;;1.37;;
5245;SDS011;54412;51.206;6.888;2022-09-16T01:06:49;3.20;;;1.40;;
5245;SDS011;54412;51.206;6.888;2022-09-16T01:09:15;5.77;;;1.37;;
5245;SDS011;54412;51.206;6.888;2022-09-16T01:11:46;6.70;;;1.50;;
5245;SDS011;54412;51.206;6.888;2022-09-16T01:14:12;8.23;;;1.00;;
5245;SDS011;54412;51.206;6.888;2022-09-16T01:17:07;1.90;;;0.93;;
5245;SDS011;54412;51.206;6.888;2022-09-16T01:22:36;3.77;;;1.30;;
5245;SDS011;54412;51.206;6.888;2022-09-16T01:31:14;6.13;;;1.83;;
5245;SDS011;54412;51.206;6.888;2022-09-16T01:34:21;2.10;;;1.10;;
5245;SDS011;54412;51.206;6.888;2022-09-16T01:37:22;3.70;;;1.53;;
5245;SDS011;54412;51.206;6.888;2022-09-16T01:45:52;5.03;;;1.80;;
5245;SDS011;54412;51.206;6.888;2022-09-16T01:51:20;4.77;;;1.30;;
5245;SDS011;54412;51.206;6.888;2022-09-16T01:54:09;6.83;;;1.23;;
5245;SDS011;54412;51.206;6.888;2022-09-16T01:59:19;2.57;;;1.07;;
5245;SDS011;54412;51.206;6.888;2022-09-16T02:01:58;1.43;;;1.00;;
5245;SDS011;54412;51.206;6.888;2022-09-16T02:04:40;2.97;;;0.90;;
5245;SDS011;54412;51.206;6.888;2022-09-16T02:07:14;9.30;;;1.07;;
5245;SDS011;54412;51.206;6.888;2022-09-16T02:09:47;2.70;;;1.10;;
5245;SDS011;54412;51.206;6.888;2022-09-16T02:12:22;6.00;;;1.53;;
5245;SDS011;54412;51.206;6.888;2022-09-16T02:14:54;6.07;;;1.27;;
5245;SDS011;54412;51.206;6.888;2022-09-16T02:17:30;2.30;;;0.97;;
5245;SDS011;54412;51.206;6.888;2022-09-16T02:20:04;2.00;;;1.33;;
5245;SDS011;54412;51.206;6.888;2022-09-16T02:22:48;4.73;;;1.67;;
5245;SDS011;54412;51.206;6.888;2022-09-16T02:25:23;5.00;;;1.93;;
5245;SDS011;54412;51.206;6.888;2022-09-16T02:27:54;4.07;;;1.20;;
5245;SDS011;54412;51.206;6.888;2022-09-16T02:30:26;3.90;;;1.30;;
5245;SDS011;54412;51.206;6.888;2022-09-16T02:32:54;3.10;;;1.00;;
5245;SDS011;54412;51.206;6.888;2022-09-16T02:35:27;8.50;;;1.93;;
5245;SDS011;54412;51.206;6.888;2022-09-16T02:38:14;4.70;;;1.07;;
5245;SDS011;54412;51.206;6.888;2022-09-16T02:40:53;12.40;;;1.80;;
5245;SDS011;54412;51.206;6.888;2022-09-16T02:43:24;4.87;;;1.50;;
5245;SDS011;54412;51.206;6.888;2022-09-16T02:54:45;5.33;;;1.33;;
5245;SDS011;54412;51.206;6.888;2022-09-16T02:57:24;4.43;;;1.40;;
5245;SDS011;54412;51.206;6.888;2022-09-16T02:59:51;1.33;;;0.87;;
5245;SDS011;54412;51.206;6.888;2022-09-16T03:02:18;3.37;;;1.10;;
5245;SDS011;54412;51.206;6.888;2022-09-16T03:04:45;5.57;;;1.07;;
5245;SDS011;54412;51.206;6.888;2022-09-16T03:07:10;4.07;;;1.47;;
5245;SDS011;54412;51.206;6.888;2022-09-16T03:09:39;4.20;;;1.30;;
5245;SDS011;54412;51.206;6.888;2022-09-16T03:12:23;6.27;;;1.60;;
5245;SDS011;54412;51.206;6.888;2022-09-16T03:15:12;3.90;;;1.20;;
5245;SDS011;54412;51.206;6.888;2022-09-16T03:18:22;5.23;;;1.53;;
5245;SDS011;54412;51.206;6.888;2022-09-16T03:29:34;2.43;;;1.30;;
5245;SDS011;54412;51.206;6.888;2022-09-16T03:32:17;4.13;;;1.33;;
5245;SDS011;54412;51.206;6.888;2022-09-16T03:35:33;2.33;;;1.20;;
5245;SDS011;54412;51.206;6.888;2022-09-16T03:37:47;4.80;;;1.73;;
5245;SDS011;54412;51.206;6.888;2022-09-16T03:40:17;3.33;;;1.47;;
5245;SDS011;54412;51.206;6.888;2022-09-16T03:42:45;5.73;;;1.60;;
5245;SDS011;54412;51.206;6.888;2022-09-16T03:45:16;5.53;;;1.80;;
5245;SDS011;54412;51.206;6.888;2022-09-16T03:47:46;3.93;;;1.50;;
5245;SDS011;54412;51.206;6.888;2022-09-16T03:50:15;4.43;;;1.40;;
5245;SDS011;54412;51.206;6.888;2022-09-16T03:52:42;12.27;;;1.60;;
5245;SDS011;54412;51.206;6.888;2022-09-16T03:55:08;9.73;;;2.33;;
5245;SDS011;54412;51.206;6.888;2022-09-16T03:57:35;12.73;;;1.70;;
5245;SDS011;54412;51.206;6.888;2022-09-16T04:00:02;5.03;;;1.40;;
5245;SDS011;54412;51.206;6.888;2022-09-16T04:02:29;4.87;;;2.00;;
5245;SDS011;54412;51.206;6.888;2022-09-16T04:04:55;2.00;;;1.60;;
5245;SDS011;54412;51.206;6.888;2022-09-16T04:07:21;7.70;;;1.90;;
5245;SDS011;54412;51.206;6.888;2022-09-16T04:09:46;4.67;;;1.93;;
5245;SDS011;54412;51.206;6.888;2022-09-16T04:12:12;4.17;;;1.97;;
5245;SDS011;54412;51.206;6.888;2022-09-16T04:14:38;5.80;;;2.00;;
5245;SDS011;54412;51.206;6.888;2022-09-16T04:17:03;5.13;;;2.00;;
5245;SDS011;54412;51.206;6.888;2022-09-16T04:19:29;9.83;;;1.60;;
5245;SDS011;54412;51.206;6.888;2022-09-16T04:21:55;7.73;;;1.70;;
5245;SDS011;54412;51.206;6.888;2022-09-16T04:24:21;5.63;;;2.50;;
5245;SDS011;54412;51.206;6.888;2022-09-16T04:26:46;4.13;;;1.70;;
5245;SDS011;54412;51.206;6.888;2022-09-16T04:29:12;9.40;;;2.30;;
5245;SDS011;54412;51.206;6.888;2022-09-16T04:31:38;4.90;;;1.70;;
5245;SDS011;54412;51.206;6.888;2022-09-16T04:34:03;5.37;;;1.40;;
5245;SDS011;54412;51.206;6.888;2022-09-16T04:36:29;5.97;;;1.90;;
5245;SDS011;54412;51.206;6.888;2022-09-16T04:38:56;7.80;;;2.13;;
5245;SDS011;54412;51.206;6.888;2022-09-16T04:41:23;10.70;;;2.23;;
5245;SDS011;54412;51.206;6.888;2022-09-16T04:43:59;10.00;;;2.73;;
5245;SDS011;54412;51.206;6.888;2022-09-16T04:46:26;7.13;;;1.87;;
5245;SDS011;54412;51.206;6.888;2022-09-16T04:48:54;4.70;;;1.37;;
5245;SDS011;54412;51.206;6.888;2022-09-16T04:51:21;6.53;;;1.93;;
5245;SDS011;54412;51.206;6.888;2022-09-16T04:53:49;10.23;;;2.33;;
5245;SDS011;54412;51.206;6.888;2022-09-16T04:56:15;7.10;;;2.50;;
5245;SDS011;54412;51.206;6.888;2022-09-16T04:58:45;5.40;;;2.57;;
5245;SDS011;54412;51.206;6.888;2022-09-16T05:01:15;5.90;;;1.73;;
5245;SDS011;54412;51.206;6.888;2022-09-16T05:03:44;3.77;;;2.30;;
5245;SDS011;54412;51.206;6.888;2022-09-16T05:06:13;12.10;;;2.70;;
5245;SDS011;54412;51.206;6.888;2022-09-16T05:08:41;5.23;;;1.87;;
5245;SDS011;54412;51.206;6.888;2022-09-16T05:11:11;9.30;;;2.60;;
5245;SDS011;54412;51.206;6.888;2022-09-16T05:13:40;5.47;;;2.20;;
5245;SDS011;54412;51.206;6.888;2022-09-16T05:16:09;16.07;;;2.40;;
5245;SDS011;54412;51.206;6.888;2022-09-16T05:18:39;5.97;;;2.20;;
5245;SDS011;54412;51.206;6.888;2022-09-16T05:21:08;10.37;;;2.27;;
5245;SDS011;54412;51.206;6.888;2022-09-16T05:23:37;7.13;;;2.60;;
5245;SDS011;54412;51.206;6.888;2022-09-16T05:26:11;5.70;;;2.20;;
5245;SDS011;54412;51.206;6.888;2022-09-16T05:28:46;6.20;;;2.87;;
5245;SDS011;54412;51.206;6.888;2022-09-16T05:31:16;7.00;;;2.97;;
5245;SDS011;54412;51.206;6.888;2022-09-16T05:33:46;5.10;;;2.47;;
5245;SDS011;54412;51.206;6.888;2022-09-16T05:36:19;11.37;;;2.80;;
5245;SDS011;54412;51.206;6.888;2022-09-16T05:38:45;11.50;;;2.20;;
5245;SDS011;54412;51.206;6.888;2022-09-16T05:41:11;13.83;;;2.77;;
5245;SDS011;54412;51.206;6.888;2022-09-16T05:43:37;7.27;;;2.50;;
5245;SDS011;54412;51.206;6.888;2022-09-16T05:46:04;7.97;;;2.80;;
5245;SDS011;54412;51.206;6.888;2022-09-16T05:48:31;7.33;;;2.80;;
5245;SDS011;54412;51.206;6.888;2022-09-16T05:50:59;11.27;;;3.27;;
5245;SDS011;54412;51.206;6.888;2022-09-16T05:53:30;10.87;;;2.80;;
5245;SDS011;54412;51.206;6.888;2022-09-16T05:55:59;6.20;;;2.20;;
5245;SDS011;54412;51.206;6.888;2022-09-16T05:58:34;11.30;;;2.50;;
5245;SDS011;54412;51.206;6.888;2022-09-16T06:01:02;8.63;;;2.60;;
5245;SDS011;54412;51.206;6.888;2022-09-16T06:03:34;12.83;;;2.67;;
5245;SDS011;54412;51.206;6.888;2022-09-16T06:06:06;4.10;;;2.30;;
5245;SDS011;54412;51.206;6.888;2022-09-16T06:08:58;11.93;;;2.37;;
5245;SDS011;54412;51.206;6.888;2022-09-16T06:11:30;10.10;;;2.57;;
5245;SDS011;54412;51.206;6.888;2022-09-16T06:14:04;9.00;;;2.10;;
5245;SDS011;54412;51.206;6.888;2022-09-16T06:16:30;9.00;;;2.90;;
5245;SDS011;54412;51.206;6.888;2022-09-16T06:18:57;10.50;;;2.33;;
5245;SDS011;54412;51.206;6.888;2022-09-16T06:21:25;11.07;;;2.27;;
5245;SDS011;54412;51.206;6.888;2022-09-16T06:23:51;14.03;;;3.10;;
5245;SDS011;54412;51.206;6.888;2022-09-16T06:26:19;5.73;;;2.13;;
5245;SDS011;54412;51.206;6.888;2022-09-16T06:28:48;10.03;;;2.67;;
5245;SDS011;54412;51.206;6.888;2022-09-16T06:31:16;9.10;;;2.57;;
5245;SDS011;54412;51.206;6.888;2022-09-16T06:33:49;4.07;;;1.97;;
5245;SDS011;54412;51.206;6.888;2022-09-16T06:36:17;9.23;;;2.50;;
5245;SDS011;54412;51.206;6.888;2022-09-16T06:38:46;15.80;;;2.50;;
5245;SDS011;54412;51.206;6.888;2022-09-16T06:41:14;5.30;;;2.50;;
5245;SDS011;54412;51.206;6.888;2022-09-16T06:43:41;7.03;;;2.83;;
5245;SDS011;54412;51.206;6.888;2022-09-16T06:46:11;13.33;;;2.87;;
5245;SDS011;54412;51.206;6.888;2022-09-16T06:48:40;3.60;;;1.93;;
5245;SDS011;54412;51.206;6.888;2022-09-16T06:51:09;6.67;;;2.37;;
5245;SDS011;54412;51.206;6.888;2022-09-16T06:53:41;7.53;;;2.60;;
5245;SDS011;54412;51.206;6.888;2022-09-16T06:56:11;4.10;;;1.97;;
5245;SDS011;54412;51.206;6.888;2022-09-16T06:58:39;7.07;;;2.53;;
5245;SDS011;54412;51.206;6.888;2022-09-16T07:01:08;5.47;;;2.40;;
5245;SDS011;54412;51.206;6.888;2022-09-16T07:03:40;4.07;;;2.00;;
5245;SDS011;54412;51.206;6.888;2022-09-16T07:06:09;2.17;;;1.90;;
5245;SDS011;54412;51.206;6.888;2022-09-16T07:08:38;12.70;;;3.07;;
5245;SDS011;54412;51.206;6.888;2022-09-16T07:11:06;8.10;;;2.10;;
5245;SDS011;54412;51.206;6.888;2022-09-16T07:13:44;4.47;;;1.53;;
5245;SDS011;54412;51.206;6.888;2022-09-16T07:16:22;4.30;;;2.00;;
5245;SDS011;54412;51.206;6.888;2022-09-16T07:18:53;11.23;;;2.17;;
5245;SDS011;54412;51.206;6.888;2022-09-16T07:21:22;5.87;;;2.20;;
5245;SDS011;54412;51.206;6.888;2022-09-16T07:23:53;15.30;;;2.03;;
5245;SDS011;54412;51.206;6.888;2022-09-16T07:26:22;4.97;;;1.70;;
5245;SDS011;54412;51.206;6.888;2022-09-16T07:28:51;5.07;;;1.97;;
5245;SDS011;54412;51.206;6.888;2022-09-16T07:31:20;7.87;;;2.43;;
5245;SDS011;54412;51.206;6.888;2022-09-16T07:33:49;4.20;;;1.70;;
5245;SDS011;54412;51.206;6.888;2022-09-16T07:36:19;10.47;;;2.13;;
5245;SDS011;54412;51.206;6.888;2022-09-16T07:38:48;4.93;;;1.73;;
5245;SDS011;54412;51.206;6.888;2022-09-16T07:41:16;2.50;;;1.70;;
5245;SDS011;54412;51.206;6.888;2022-09-16T07:43:44;3.57;;;1.53;;
5245;SDS011;54412;51.206;6.888;2022-09-16T07:46:11;7.90;;;1.87;;
5245;SDS011;54412;51.206;6.888;2022-09-16T07:48:43;3.73;;;1.70;;
5245;SDS011;54412;51.206;6.888;2022-09-16T07:51:13;6.07;;;1.70;;
5245;SDS011;54412;51.206;6.888;2022-09-16T07:53:41;9.53;;;2.20;;
5245;SDS011;54412;51.206;6.888;2022-09-16T07:56:13;3.07;;;1.60;;
5245;SDS011;54412;51.206;6.888;2022-09-16T07:58:42;3.97;;;1.43;;
5245;SDS011;54412;51.206;6.888;2022-09-16T08:01:10;5.43;;;2.23;;
5245;SDS011;54412;51.206;6.888;2022-09-16T08:03:39;6.77;;;1.83;;
5245;SDS011;54412;51.206;6.888;2022-09-16T08:06:08;4.40;;;1.40;;
5245;SDS011;54412;51.206;6.888;2022-09-16T08:08:38;4.67;;;1.87;;
5245;SDS011;54412;51.206;6.888;2022-09-16T08:11:04;4.63;;;1.50;;
5245;SDS011;54412;51.206;6.888;2022-09-16T08:13:30;3.50;;;1.60;;
5245;SDS011;54412;51.206;6.888;2022-09-16T08:16:00;8.10;;;1.90;;
5245;SDS011;54412;51.206;6.888;2022-09-16T08:18:31;3.70;;;1.70;;
5245;SDS011;54412;51.206;6.888;2022-09-16T08:20:57;4.60;;;1.60;;
5245;SDS011;54412;51.206;6.888;2022-09-16T08:23:29;1.87;;;1.30;;
5245;SDS011;54412;51.206;6.888;2022-09-16T08:25:58;3.03;;;1.23;;
5245;SDS011;54412;51.206;6.888;2022-09-16T08:28:26;8.73;;;1.20;;
5245;SDS011;54412;51.206;6.888;2022-09-16T08:30:53;7.60;;;1.70;;
5245;SDS011;54412;51.206;6.888;2022-09-16T08:33:19;2.37;;;1.30;;
5245;SDS011;54412;51.206;6.888;2022-09-16T08:35:58;7.30;;;1.70;;
5245;SDS011;54412;51.206;6.888;2022-09-16T08:38:35;3.03;;;1.20;;
5245;SDS011;54412;51.206;6.888;2022-09-16T08:41:05;4.17;;;2.00;;
5245;SDS011;54412;51.206;6.888;2022-09-16T08:43:51;5.30;;;1.50;;
5245;SDS011;54412;51.206;6.888;2022-09-16T08:46:50;2.73;;;1.27;;
5245;SDS011;54412;51.206;6.888;2022-09-16T08:49:19;4.93;;;1.30;;
5245;SDS011;54412;51.206;6.888;2022-09-16T08:52:11;3.07;;;1.40;;
5245;SDS011;54412;51.206;6.888;2022-09-16T08:55:00;5.90;;;1.30;;
5245;SDS011;54412;51.206;6.888;2022-09-16T08:57:47;1.03;;;0.80;;
5245;SDS011;54412;51.206;6.888;2022-09-16T09:00:23;5.97;;;1.53;;
5245;SDS011;54412;51.206;6.888;2022-09-16T09:05:50;3.20;;;1.10;;
5245;SDS011;54412;51.206;6.888;2022-09-16T09:10:55;7.77;;;1.80;;
5245;SDS011;54412;51.206;6.888;2022-09-16T09:19:42;4.53;;;1.17;;
5245;SDS011;54412;51.206;6.888;2022-09-16T09:26:03;3.27;;;0.97;;
5245;SDS011;54412;51.206;6.888;2022-09-16T09:28:52;3.40;;;1.20;;
5245;SDS011;54412;51.206;6.888;2022-09-16T09:31:56;3.97;;;1.13;;
5245;SDS011;54412;51.206;6.888;2022-09-16T09:40:47;2.57;;;0.70;;
5245;SDS011;54412;51.206;6.888;2022-09-16T09:46:07;2.77;;;0.90;;
5245;SDS011;54412;51.206;6.888;2022-09-16T09:48:47;3.27;;;0.70;;
5245;SDS011;54412;51.206;6.888;2022-09-16T09:51:49;1.70;;;1.00;;
5245;SDS011;54412;51.206;6.888;2022-09-16T09:54:33;6.23;;;1.20;;
5245;SDS011;54412;51.206;6.888;2022-09-16T09:57:01;3.47;;;1.27;;
5245;SDS011;54412;51.206;6.888;2022-09-16T10:00:10;5.10;;;1.20;;
5245;SDS011;54412;51.206;6.888;2022-09-16T10:02:41;2.70;;;1.00;;
5245;SDS011;54412;51.206;6.888;2022-09-16T10:05:13;2.73;;;0.77;;
5245;SDS011;54412;51.206;6.888;2022-09-16T10:07:50;5.47;;;0.80;;
5245;SDS011;54412;51.206;6.888;2022-09-16T10:10:23;2.00;;;0.70;;
5245;SDS011;54412;51.206;6.888;2022-09-16T10:12:53;3.03;;;0.90;;
5245;SDS011;54412;51.206;6.888;2022-09-16T10:17:52;3.90;;;0.87;;
5245;SDS011;54412;51.206;6.888;2022-09-16T10:22:59;3.10;;;1.43;;
5245;SDS011;54412;51.206;6.888;2022-09-16T10:25:34;1.83;;;0.90;;
5245;SDS011;54412;51.206;6.888;2022-09-16T10:28:01;6.60;;;0.90;;
5245;SDS011;54412;51.206;6.888;2022-09-16T10:30:31;2.80;;;0.80;;
5245;SDS011;54412;51.206;6.888;2022-09-16T10:33:11;3.63;;;1.00;;
5245;SDS011;54412;51.206;6.888;2022-09-16T10:35:52;5.57;;;1.47;;
5245;SDS011;54412;51.206;6.888;2022-09-16T10:38:26;4.67;;;1.37;;
5245;SDS011;54412;51.206;6.888;2022-09-16T10:41:20;3.07;;;1.10;;
5245;SDS011;54412;51.206;6.888;2022-09-16T10:43:55;4.00;;;1.50;;
5245;SDS011;54412;51.206;6.888;2022-09-16T10:46:37;4.00;;;1.63;;
5245;SDS011;54412;51.206;6.888;2022-09-16T10:49:22;7.17;;;1.50;;
5245;SDS011;54412;51.206;6.888;2022-09-16T10:54:55;6.13;;;1.30;;
5245;SDS011;54412;51.206;6.888;2022-09-16T10:57:25;4.20;;;0.97;;
5245;SDS011;54412;51.206;6.888;2022-09-16T11:00:09;5.47;;;1.20;;
5245;SDS011;54412;51.206;6.888;2022-09-16T11:02:45;5.73;;;1.10;;
5245;SDS011;54412;51.206;6.888;2022-09-16T11:06:23;3.20;;;0.80;;
5245;SDS011;54412;51.206;6.888;2022-09-16T11:12:04;2.93;;;0.97;;
5245;SDS011;54412;51.206;6.888;2022-09-16T11:18:28;0.87;;;0.73;;
5245;SDS011;54412;51.206;6.888;2022-09-16T11:21:32;2.33;;;1.00;;
5245;SDS011;54412;51.206;6.888;2022-09-16T11:27:42;1.53;;;1.00;;
5245;SDS011;54412;51.206;6.888;2022-09-16T11:30:19;4.60;;;1.33;;
5245;SDS011;54412;51.206;6.888;2022-09-16T11:38:46;4.17;;;1.00;;
5245;SDS011;54412;51.206;6.888;2022-09-16T11:41:44;5.87;;;1.00;;
5245;SDS011;54412;51.206;6.888;2022-09-16T11:44:41;5.10;;;1.20;;
5245;SDS011;54412;51.206;6.888;2022-09-16T11:50:17;2.97;;;1.23;;
5245;SDS011;54412;51.206;6.888;2022-09-16T11:53:29;2.60;;;1.00;;
5245;SDS011;54412;51.206;6.888;2022-09-16T11:59:17;3.00;;;0.73;;
5245;SDS011;54412;51.206;6.888;2022-09-16T12:02:06;1.10;;;0.80;;
5245;SDS011;54412;51.206;6.888;2022-09-16T12:04:37;3.50;;;1.00;;
5245;SDS011;54412;51.206;6.888;2022-09-16T12:07:35;3.40;;;0.80;;
5245;SDS011;54412;51.206;6.888;2022-09-16T12:10:20;4.23;;;1.07;;
5245;SDS011;54412;51.206;6.888;2022-09-16T12:12:49;3.13;;;1.13;;
5245;SDS011;54412;51.206;6.888;2022-09-16T12:15:36;2.57;;;0.97;;
5245;SDS011;54412;51.206;6.888;2022-09-16T12:23:50;3.97;;;0.77;;
5245;SDS011;54412;51.206;6.888;2022-09-16T12:26:29;1.47;;;0.97;;
5245;SDS011;54412;51.206;6.888;2022-09-16T12:32:18;5.77;;;0.60;;
5245;SDS011;54412;51.206;6.888;2022-09-16T12:35:27;1.90;;;0.80;;
5245;SDS011;54412;51.206;6.888;2022-09-16T12:37:59;2.03;;;0.80;;
5245;SDS011;54412;51.206;6.888;2022-09-16T12:40:26;2.67;;;0.93;;
5245;SDS011;54412;51.206;6.888;2022-09-16T12:55:49;1.13;;;0.70;;
5245;SDS011;54412;51.206;6.888;2022-09-16T12:58:52;1.70;;;0.73;;
5245;SDS011;54412;51.206;6.888;2022-09-16T13:01:53;1.27;;;0.63;;
5245;SDS011;54412;51.206;6.888;2022-09-16T13:04:29;3.33;;;0.83;;
5245;SDS011;54412;51.206;6.888;2022-09-16T13:07:01;1.33;;;1.23;;
5245;SDS011;54412;51.206;6.888;2022-09-16T13:09:38;1.40;;;0.80;;
5245;SDS011;54412;51.206;6.888;2022-09-16T13:12:20;4.40;;;0.60;;
5245;SDS011;54412;51.206;6.888;2022-09-16T13:14:55;0.87;;;0.60;;
5245;SDS011;54412;51.206;6.888;2022-09-16T13:22:49;0.50;;;0.50;;
5245;SDS011;54412;51.206;6.888;2022-09-16T13:33:39;2.83;;;0.70;;
5245;SDS011;54412;51.206;6.888;2022-09-16T13:36:16;3.00;;;0.80;;
5245;SDS011;54412;51.206;6.888;2022-09-16T13:39:00;6.37;;;1.30;;
5245;SDS011;54412;51.206;6.888;2022-09-16T13:41:36;1.53;;;0.90;;
5245;SDS011;54412;51.206;6.888;2022-09-16T13:49:35;1.90;;;0.70;;
5245;SDS011;54412;51.206;6.888;2022-09-16T13:54:55;1.47;;;0.70;;
5245;SDS011;54412;51.206;6.888;2022-09-16T14:04:14;2.00;;;1.03;;
5245;SDS011;54412;51.206;6.888;2022-09-16T14:07:06;3.30;;;1.83;;
5245;SDS011;54412;51.206;6.888;2022-09-16T14:09:54;3.17;;;1.20;;
5245;SDS011;54412;51.206;6.888;2022-09-16T14:15:36;14.63;;;1.10;;
5245;SDS011;54412;51.206;6.888;2022-09-16T14:18:11;2.60;;;0.60;;
5245;SDS011;54412;51.206;6.888;2022-09-16T14:21:04;4.20;;;0.90;;
5245;SDS011;54412;51.206;6.888;2022-09-16T14:23:48;2.73;;;0.53;;
5245;SDS011;54412;51.206;6.888;2022-09-16T14:26:15;2.50;;;0.70;;
5245;SDS011;54412;51.206;6.888;2022-09-16T14:28:44;0.70;;;0.70;;
5245;SDS011;54412;51.206;6.888;2022-09-16T14:31:17;2.93;;;0.50;;
5245;SDS011;54412;51.206;6.888;2022-09-16T14:36:22;0.97;;;0.57;;
5245;SDS011;54412;51.206;6.888;2022-09-16T14:38:56;0.73;;;0.60;;
5245;SDS011;54412;51.206;6.888;2022-09-16T14:41:31;1.60;;;0.57;;
5245;SDS011;54412;51.206;6.888;2022-09-16T14:44:19;0.50;;;0.50;;
5245;SDS011;54412;51.206;6.888;2022-09-16T14:47:03;0.57;;;0.50;;
5245;SDS011;54412;51.206;6.888;2022-09-16T14:49:44;0.80;;;0.60;;
5245;SDS011;54412;51.206;6.888;2022-09-16T14:52:17;0.90;;;0.67;;
5245;SDS011;54412;51.206;6.888;2022-09-16T14:54:46;0.40;;;0.40;;
5245;SDS011;54412;51.206;6.888;2022-09-16T14:57:30;2.60;;;0.87;;
5245;SDS011;54412;51.206;6.888;2022-09-16T14:59:59;6.03;;;0.70;;
5245;SDS011;54412;51.206;6.888;2022-09-16T15:08:14;0.70;;;0.70;;
5245;SDS011;54412;51.206;6.888;2022-09-16T15:10:47;1.07;;;0.77;;
5245;SDS011;54412;51.206;6.888;2022-09-16T15:13:33;3.63;;;1.20;;
5245;SDS011;54412;51.206;6.888;2022-09-16T15:18:32;2.30;;;0.90;;
5245;SDS011;54412;51.206;6.888;2022-09-16T15:23:47;2.20;;;0.90;;
5245;SDS011;54412;51.206;6.888;2022-09-16T15:27:02;3.10;;;1.20;;
5245;SDS011;54412;51.206;6.888;2022-09-16T15:31:44;5.60;;;1.10;;
5245;SDS011;54412;51.206;6.888;2022-09-16T15:36:43;2.00;;;1.23;;
5245;SDS011;54412;51.206;6.888;2022-09-16T15:39:29;3.17;;;0.80;;
5245;SDS011;54412;51.206;6.888;2022-09-16T15:47:17;3.80;;;1.40;;
5245;SDS011;54412;51.206;6.888;2022-09-16T15:49:52;1.00;;;0.77;;
5245;SDS011;54412;51.206;6.888;2022-09-16T15:52:24;4.70;;;1.03;;
5245;SDS011;54412;51.206;6.888;2022-09-16T15:55:01;1.17;;;0.70;;
5245;SDS011;54412;51.206;6.888;2022-09-16T15:57:31;2.70;;;1.17;;
5245;SDS011;54412;51.206;6.888;2022-09-16T16:00:05;2.23;;;1.10;;
5245;SDS011;54412;51.206;6.888;2022-09-16T16:02:49;3.50;;;1.10;;
5245;SDS011;54412;51.206;6.888;2022-09-16T16:05:24;6.47;;;1.40;;
5245;SDS011;54412;51.206;6.888;2022-09-16T16:07:54;4.73;;;1.00;;
5245;SDS011;54412;51.206;6.888;2022-09-16T16:10:29;6.83;;;1.10;;
5245;SDS011;54412;51.206;6.888;2022-09-16T16:12:57;2.67;;;0.93;;
5245;SDS011;54412;51.206;6.888;2022-09-16T16:15:26;3.73;;;1.20;;
5245;SDS011;54412;51.206;6.888;2022-09-16T16:17:58;5.57;;;1.40;;
5245;SDS011;54412;51.206;6.888;2022-09-16T16:20:29;1.60;;;1.30;;
5245;SDS011;54412;51.206;6.888;2022-09-16T16:22:58;3.10;;;1.27;;
5245;SDS011;54412;51.206;6.888;2022-09-16T16:25:24;7.20;;;0.77;;
5245;SDS011;54412;51.206;6.888;2022-09-16T16:27:51;4.83;;;1.20;;
5245;SDS011;54412;51.206;6.888;2022-09-16T16:30:17;2.20;;;1.20;;
5245;SDS011;54412;51.206;6.888;2022-09-16T16:32:43;10.10;;;1.30;;
5245;SDS011;54412;51.206;6.888;2022-09-16T16:35:10;2.00;;;0.93;;
5245;SDS011;54412;51.206;6.888;2022-09-16T16:37:36;5.47;;;1.30;;
5245;SDS011;54412;51.206;6.888;2022-09-16T16:40:03;2.33;;;1.17;;
5245;SDS011;54412;51.206;6.888;2022-09-16T16:42:30;6.13;;;1.60;;
5245;SDS011;54412;51.206;6.888;2022-09-16T16:44:56;5.90;;;1.20;;
5245;SDS011;54412;51.206;6.888;2022-09-16T16:47:22;2.60;;;1.07;;
5245;SDS011;54412;51.206;6.888;2022-09-16T16:49:48;4.43;;;0.90;;
5245;SDS011;54412;51.206;6.888;2022-09-16T16:52:15;2.70;;;0.97;;
5245;SDS011;54412;51.206;6.888;2022-09-16T16:54:41;2.90;;;0.83;;
5245;SDS011;54412;51.206;6.888;2022-09-16T16:57:07;2.30;;;1.20;;
5245;SDS011;54412;51.206;6.888;2022-09-16T16:59:35;4.33;;;1.30;;
5245;SDS011;54412;51.206;6.888;2022-09-16T17:02:01;2.67;;;1.37;;
5245;SDS011;54412;51.206;6.888;2022-09-16T17:04:28;6.30;;;0.83;;
5245;SDS011;54412;51.206;6.888;2022-09-16T17:06:53;3.50;;;0.93;;
5245;SDS011;54412;51.206;6.888;2022-09-16T17:09:21;4.47;;;1.13;;
5245;SDS011;54412;51.206;6.888;2022-09-16T17:11:56;2.33;;;1.40;;
5245;SDS011;54412;51.206;6.888;2022-09-16T17:14:25;4.93;;;1.53;;
5245;SDS011;54412;51.206;6.888;2022-09-16T17:16:53;8.57;;;2.30;;
5245;SDS011;54412;51.206;6.888;2022-09-16T17:19:21;8.90;;;2.00;;
5245;SDS011;54412;51.206;6.888;2022-09-16T17:21:49;6.17;;;1.80;;
5245;SDS011;54412;51.206;6.888;2022-09-16T17:24:17;10.00;;;1.70;;
5245;SDS011;54412;51.206;6.888;2022-09-16T17:26:44;3.73;;;1.23;;
5245;SDS011;54412;51.206;6.888;2022-09-16T17:29:10;3.73;;;1.20;;
5245;SDS011;54412;51.206;6.888;2022-09-16T17:31:37;3.30;;;1.57;;
5245;SDS011;54412;51.206;6.888;2022-09-16T17:34:04;6.43;;;1.40;;
5245;SDS011;54412;51.206;6.888;2022-09-16T17:36:37;5.17;;;1.40;;
5245;SDS011;54412;51.206;6.888;2022-09-16T17:39:09;1.80;;;1.33;;
5245;SDS011;54412;51.206;6.888;2022-09-16T17:41:38;2.60;;;1.13;;
5245;SDS011;54412;51.206;6.888;2022-09-16T17:44:07;5.33;;;1.70;;
5245;SDS011;54412;51.206;6.888;2022-09-16T17:46:34;6.47;;;1.90;;
5245;SDS011;54412;51.206;6.888;2022-09-16T17:49:01;8.60;;;1.70;;
5245;SDS011;54412;51.206;6.888;2022-09-16T17:51:31;4.27;;;1.40;;
5245;SDS011;54412;51.206;6.888;2022-09-16T17:53:58;1.50;;;1.30;;
5245;SDS011;54412;51.206;6.888;2022-09-16T17:56:24;3.40;;;1.37;;
5245;SDS011;54412;51.206;6.888;2022-09-16T17:58:50;3.97;;;1.37;;
5245;SDS011;54412;51.206;6.888;2022-09-16T18:01:21;7.20;;;1.47;;
5245;SDS011;54412;51.206;6.888;2022-09-16T18:03:51;6.33;;;1.80;;
5245;SDS011;54412;51.206;6.888;2022-09-16T18:06:23;5.90;;;1.80;;
5245;SDS011;54412;51.206;6.888;2022-09-16T18:08:52;5.70;;;1.90;;
5245;SDS011;54412;51.206;6.888;2022-09-16T18:11:19;3.80;;;1.50;;
5245;SDS011;54412;51.206;6.888;2022-09-16T18:13:47;6.87;;;1.80;;
5245;SDS011;54412;51.206;6.888;2022-09-16T18:16:21;7.80;;;1.80;;
5245;SDS011;54412;51.206;6.888;2022-09-16T18:18:49;5.10;;;1.77;;
5245;SDS011;54412;51.206;6.888;2022-09-16T18:21:22;4.00;;;1.63;;
5245;SDS011;54412;51.206;6.888;2022-09-16T18:23:56;6.57;;;1.60;;
5245;SDS011;54412;51.206;6.888;2022-09-16T18:26:24;8.07;;;1.40;;
5245;SDS011;54412;51.206;6.888;2022-09-16T18:28:51;3.13;;;1.30;;
5245;SDS011;54412;51.206;6.888;2022-09-16T18:31:20;2.60;;;1.37;;
5245;SDS011;54412;51.206;6.888;2022-09-16T18:33:50;8.03;;;1.47;;